createdAt,value
2018-04-01T08:10:14.194Z,4.73
2018-04-01T08:12:41.237Z,6.10
2018-04-01T08:15:09.395Z,5.30
2018-04-01T08:17:36.678Z,6.97
2018-04-01T08:20:03.733Z,9.20
2018-04-01T08:22:30.909Z,4.47
2018-04-01T08:24:57.991Z,3.53
2018-04-01T08:27:25.091Z,2.50
2018-04-01T08:29:52.200Z,5.13
2018-04-01T08:32:19.243Z,2.73
2018-04-01T08:34:46.320Z,2.30
2018-04-01T08:37:13.371Z,3.77
2018-04-01T08:39:40.480Z,3.00
2018-04-01T08:42:07.571Z,2.10
2018-04-01T08:44:34.691Z,2.60
2018-04-01T08:47:01.740Z,4.10
2018-04-01T08:49:29.935Z,2.90
2018-04-01T08:51:56.975Z,2.20
2018-04-01T08:54:24.008Z,2.80
2018-04-01T08:56:51.066Z,3.70
2018-04-01T08:59:18.291Z,3.80
2018-04-01T09:01:45.314Z,2.93
2018-04-01T09:04:12.383Z,2.20
2018-04-01T09:06:39.449Z,2.73
2018-04-01T09:09:06.525Z,3.70
2018-04-01T09:11:33.630Z,5.17
2018-04-01T09:14:00.691Z,3.60
2018-04-01T09:16:27.803Z,2.60
2018-04-01T09:18:54.871Z,2.60
2018-04-01T09:21:21.911Z,3.47
2018-04-01T09:23:48.948Z,2.00
2018-04-01T09:26:15.991Z,1.87
2018-04-01T09:28:45.148Z,1.67
2018-04-01T09:31:12.206Z,2.43
2018-04-01T09:33:39.299Z,2.50
2018-04-01T09:36:08.672Z,2.50
2018-04-01T09:38:35.785Z,2.13
2018-04-01T09:41:03.587Z,3.83
2018-04-01T09:43:30.659Z,5.30
2018-04-01T09:45:57.758Z,2.70
2018-04-01T09:48:25.052Z,2.37
2018-04-01T09:50:52.571Z,4.87
2018-04-01T09:53:19.751Z,2.13
2018-04-01T09:55:46.888Z,1.80
2018-04-01T09:58:14.081Z,1.70
2018-04-01T10:03:03.243Z,2.20
2018-04-01T10:05:31.230Z,4.03
2018-04-01T10:07:58.976Z,2.63
2018-04-01T10:10:26.610Z,1.80
2018-04-01T10:13:01.033Z,2.10
2018-04-01T10:15:30.080Z,3.50
2018-04-01T10:18:06.218Z,2.00
2018-04-01T10:20:33.814Z,3.50
2018-04-01T10:23:01.913Z,3.10
2018-04-01T10:25:29.559Z,2.93
2018-04-01T10:27:57.176Z,2.50
2018-04-01T10:30:25.623Z,3.10
2018-04-01T10:32:53.249Z,1.80
2018-04-01T10:35:20.898Z,3.47
2018-04-01T10:37:48.650Z,4.23
2018-04-01T10:40:16.448Z,2.00
2018-04-01T10:42:46.273Z,1.60
2018-04-01T10:45:13.986Z,4.47
2018-04-01T10:47:41.725Z,1.93
2018-04-01T10:50:09.418Z,2.20
2018-04-01T10:52:37.077Z,3.73
2018-04-01T10:55:04.292Z,2.93
2018-04-01T10:57:31.307Z,3.17
2018-04-01T10:59:58.455Z,2.53
2018-04-01T11:02:25.568Z,4.00
2018-04-01T11:04:52.738Z,1.90
2018-04-01T11:07:19.867Z,3.20
2018-04-01T11:09:47.016Z,3.20
2018-04-01T11:12:14.189Z,4.57
2018-04-01T11:14:41.238Z,3.03
2018-04-01T11:17:08.338Z,4.00
2018-04-01T11:19:35.439Z,4.10
2018-04-01T11:22:02.548Z,4.97
2018-04-01T11:24:29.728Z,2.40
2018-04-01T11:26:56.896Z,2.97
2018-04-01T11:29:23.998Z,3.47
2018-04-01T11:31:51.308Z,4.80
2018-04-01T11:34:18.368Z,2.30
2018-04-01T11:36:45.745Z,2.40
2018-04-01T11:39:12.787Z,4.07
2018-04-01T11:41:53.898Z,3.70
2018-04-01T11:44:21.928Z,3.47
2018-04-01T11:46:48.975Z,4.00
2018-04-01T11:49:17.224Z,4.77
2018-04-01T11:54:39.396Z,3.53
2018-04-01T11:57:06.488Z,4.33
2018-04-01T11:59:34.016Z,3.10
2018-04-01T12:02:01.191Z,5.47
2018-04-01T12:04:28.296Z,5.77
2018-04-01T12:06:55.366Z,3.70
2018-04-01T12:09:22.468Z,3.83
2018-04-01T12:11:49.541Z,3.57
2018-04-01T12:14:16.683Z,3.37
2018-04-01T12:16:43.728Z,4.90
2018-04-01T12:19:10.888Z,4.27
2018-04-01T12:21:37.938Z,4.50
2018-04-01T12:24:05.028Z,5.43
2018-04-01T12:26:32.240Z,5.00
2018-04-01T12:28:59.370Z,3.33
2018-04-01T12:31:26.539Z,4.97
2018-04-01T12:33:53.575Z,3.80
2018-04-01T12:36:20.611Z,3.00
2018-04-01T12:38:47.706Z,4.00
2018-04-01T12:41:14.776Z,2.97
2018-04-01T12:43:41.835Z,3.97
2018-04-01T12:46:14.841Z,3.00
2018-04-01T12:48:41.917Z,4.10
2018-04-01T12:51:09.030Z,3.53
2018-04-01T12:53:36.124Z,3.87
2018-04-01T12:56:03.165Z,4.60
2018-04-01T12:58:30.258Z,4.70
2018-04-01T13:00:57.300Z,7.30
2018-04-01T13:03:24.419Z,2.60
2018-04-01T13:05:51.456Z,4.83
2018-04-01T13:08:18.530Z,4.63
2018-04-01T13:10:45.586Z,3.73
2018-04-01T13:13:12.623Z,3.57
2018-04-01T13:15:39.705Z,3.90
2018-04-01T13:18:06.743Z,4.73
2018-04-01T13:20:33.814Z,4.07
2018-04-01T13:23:00.960Z,4.10
2018-04-01T13:25:28.117Z,3.63
2018-04-01T13:27:55.256Z,3.87
2018-04-01T13:30:22.320Z,6.23
2018-04-01T13:32:49.353Z,4.63
2018-04-01T13:35:16.455Z,4.20
2018-04-01T13:37:43.579Z,3.80
2018-04-01T13:40:10.620Z,5.60
2018-04-01T13:42:37.697Z,4.00
2018-04-01T13:45:04.724Z,5.23
2018-04-01T13:47:31.796Z,5.83
2018-04-01T13:49:58.877Z,5.80
2018-04-01T13:52:25.926Z,5.40
2018-04-01T13:54:53.939Z,4.83
2018-04-01T13:57:21.030Z,5.77
2018-04-01T13:59:48.079Z,3.87
2018-04-01T14:02:15.151Z,5.97
2018-04-01T14:04:42.202Z,6.67
2018-04-01T14:07:09.284Z,7.40
2018-04-01T14:09:36.404Z,8.17
2018-04-01T14:12:03.455Z,8.10
2018-04-01T14:14:30.532Z,6.67
2018-04-01T14:16:57.609Z,6.57
2018-04-01T14:19:24.687Z,7.30
2018-04-01T14:21:51.750Z,6.03
2018-04-01T14:24:18.790Z,7.00
2018-04-01T14:26:45.815Z,8.80
2018-04-01T14:29:12.851Z,13.23
2018-04-01T14:31:39.984Z,8.03
2018-04-01T14:34:07.039Z,8.07
2018-04-01T14:36:34.381Z,8.30
2018-04-01T14:39:01.433Z,7.73
2018-04-01T14:41:28.478Z,9.07
2018-04-01T14:43:55.530Z,8.00
2018-04-01T14:46:22.568Z,9.67
2018-04-01T14:48:49.614Z,9.70
2018-04-01T14:51:16.663Z,8.30
2018-04-01T14:53:43.862Z,8.67
2018-04-01T14:56:10.899Z,6.10
2018-04-01T14:58:38.069Z,7.83
2018-04-01T15:01:05.094Z,6.60
2018-04-01T15:03:32.128Z,7.87
2018-04-01T15:05:59.204Z,7.83
2018-04-01T15:08:26.243Z,6.50
2018-04-01T15:10:53.373Z,9.60
2018-04-01T15:13:21.236Z,9.40
2018-04-01T15:15:48.392Z,11.60
2018-04-01T15:18:15.467Z,8.70
2018-04-01T15:20:42.587Z,11.60
2018-04-01T15:23:09.619Z,12.33
2018-04-01T15:25:36.657Z,12.57
2018-04-01T15:28:04.192Z,9.77
2018-04-01T15:30:31.230Z,14.73
2018-04-01T15:32:58.276Z,24.20
2018-04-01T15:35:25.320Z,13.87
2018-04-01T15:37:52.359Z,15.47
2018-04-01T15:40:19.906Z,21.23
2018-04-01T15:42:47.000Z,19.27
2018-04-01T15:45:14.043Z,40.90
2018-04-01T15:47:41.115Z,9.50
2018-04-01T15:50:08.156Z,13.60
2018-04-01T15:52:35.191Z,22.20
2018-04-01T15:55:02.228Z,28.93
2018-04-01T15:57:29.272Z,25.07
2018-04-01T15:59:56.309Z,20.40
2018-04-01T16:02:23.374Z,10.40
2018-04-01T16:04:50.432Z,5.60
2018-04-01T16:07:17.653Z,8.40
2018-04-01T16:09:44.692Z,6.93
2018-04-01T16:12:11.867Z,7.93
2018-04-01T16:14:38.911Z,7.43
2018-04-01T16:17:06.163Z,6.93
2018-04-01T16:19:33.020Z,7.70
2018-04-01T16:22:00.127Z,9.57
2018-04-01T16:24:28.016Z,7.73
2018-04-01T16:26:55.056Z,7.40
2018-04-01T16:29:22.140Z,10.30
2018-04-01T16:31:49.180Z,11.50
2018-04-01T16:34:16.220Z,9.80
2018-04-01T16:36:43.251Z,9.37
2018-04-01T16:39:10.296Z,5.93
2018-04-01T16:41:37.334Z,4.47
2018-04-01T16:44:04.422Z,9.20
2018-04-01T16:46:31.820Z,6.23
2018-04-01T16:48:58.855Z,9.03
2018-04-01T16:51:25.937Z,6.73
2018-04-01T16:53:52.984Z,9.17
2018-04-01T16:56:20.834Z,5.83
2018-04-01T16:58:48.024Z,11.80
2018-04-01T17:01:15.187Z,7.77
2018-04-01T17:03:42.287Z,9.40
2018-04-01T17:06:09.856Z,9.23
2018-04-01T17:08:36.896Z,9.57
2018-04-01T17:11:03.979Z,11.03
2018-04-01T17:13:31.076Z,12.20
2018-04-01T17:15:58.167Z,12.03
2018-04-01T17:18:26.192Z,11.23
2018-04-01T17:20:53.232Z,10.50
2018-04-01T17:23:22.384Z,7.53
2018-04-01T17:25:49.479Z,14.63
2018-04-01T17:28:16.795Z,10.80
2018-04-01T17:30:44.127Z,11.30
2018-04-01T17:33:11.256Z,9.17
2018-04-01T17:35:38.452Z,8.27
2018-04-01T17:38:05.578Z,9.93
2018-04-01T17:40:32.668Z,10.17
2018-04-01T17:42:59.900Z,10.47
2018-04-01T17:45:27.078Z,12.93
2018-04-01T17:47:54.113Z,11.07
2018-04-01T17:50:21.159Z,11.83
2018-04-01T17:52:48.747Z,10.50
2018-04-01T17:55:16.757Z,14.13
2018-04-01T17:57:43.903Z,11.53
2018-04-01T18:00:10.952Z,11.40
2018-04-01T18:02:38.891Z,10.57
2018-04-01T18:05:05.940Z,14.83
2018-04-01T18:07:33.148Z,10.37
2018-04-01T18:10:00.284Z,15.90
2018-04-01T18:12:27.340Z,10.43
2018-04-01T18:14:54.939Z,10.77
2018-04-01T18:17:22.273Z,12.10
2018-04-01T18:19:49.510Z,10.13
2018-04-01T18:22:16.827Z,9.97
2018-04-01T18:24:45.037Z,10.20
2018-04-01T18:27:13.223Z,9.63
2018-04-01T18:29:41.402Z,17.87
2018-04-01T18:32:09.323Z,10.03
2018-04-01T18:34:37.693Z,11.37
2018-04-01T18:37:06.178Z,7.97
2018-04-01T18:39:33.728Z,17.00
2018-04-01T18:42:00.942Z,11.10
2018-04-01T18:44:28.503Z,11.57
2018-04-01T18:46:56.062Z,10.33
2018-04-01T18:49:23.929Z,12.53
2018-04-01T18:51:51.769Z,9.98
2018-04-01T18:54:18.949Z,11.00
2018-04-01T18:56:46.775Z,8.10
2018-04-01T18:59:14.273Z,12.53
2018-04-01T19:01:42.498Z,16.70
2018-04-01T19:04:10.631Z,16.33
2018-04-01T19:06:38.608Z,14.53
2018-04-01T19:09:06.415Z,12.43
2018-04-01T19:11:34.224Z,17.20
2018-04-01T19:14:02.148Z,11.80
2018-04-01T19:16:32.009Z,12.90
2018-04-01T19:19:01.060Z,13.20
2018-04-01T19:21:30.536Z,19.47
2018-04-01T19:23:59.255Z,19.37
2018-04-01T19:26:27.880Z,15.40
2018-04-01T19:28:56.719Z,19.20
2018-04-01T19:31:26.172Z,17.20
2018-04-01T19:33:55.712Z,17.98
2018-04-01T19:36:24.503Z,23.47
2018-04-01T19:38:53.150Z,16.73
2018-04-01T19:41:22.011Z,20.07
2018-04-01T19:43:50.605Z,19.23
2018-04-01T19:46:19.733Z,20.80
2018-04-01T19:48:48.479Z,21.33
2018-04-01T19:51:17.525Z,22.80
2018-04-01T19:53:47.456Z,20.73
2018-04-01T19:56:16.299Z,22.53
2018-04-01T19:58:46.031Z,25.53
2018-04-01T20:01:14.722Z,27.43
2018-04-01T20:03:43.551Z,27.30
2018-04-01T20:06:12.094Z,30.63
2018-04-01T20:08:40.782Z,26.83
2018-04-01T20:11:09.423Z,25.83
2018-04-01T20:13:38.378Z,26.30
2018-04-01T20:16:06.984Z,28.23
2018-04-01T20:18:35.638Z,25.23
2018-04-01T20:21:03.836Z,27.87
2018-04-01T20:23:32.387Z,26.80
2018-04-01T20:26:00.972Z,26.87
2018-04-01T20:28:29.475Z,30.70
2018-04-01T20:30:58.050Z,25.93
2018-04-01T20:33:26.628Z,27.03
2018-04-01T20:35:54.387Z,26.03
2018-04-01T20:38:22.891Z,27.50
2018-04-01T20:40:51.612Z,23.13
2018-04-01T20:43:20.552Z,27.60
2018-04-01T20:45:48.319Z,26.53
2018-04-01T20:48:16.804Z,31.50
2018-04-01T20:50:44.614Z,26.53
2018-04-01T20:53:12.276Z,29.80
2018-04-01T20:55:40.847Z,25.90
2018-04-01T20:58:09.348Z,29.47
2018-04-01T21:00:37.891Z,26.93
2018-04-01T21:03:05.540Z,32.90
2018-04-01T21:05:34.111Z,28.70
2018-04-01T21:08:02.796Z,27.50
2018-04-01T21:10:30.636Z,30.40
2018-04-01T21:12:58.401Z,31.50
2018-04-01T21:15:26.105Z,26.47
2018-04-01T21:17:53.723Z,29.30
2018-04-01T21:20:21.462Z,33.27
2018-04-01T21:22:49.112Z,36.23
2018-04-01T21:25:16.916Z,33.93
2018-04-01T21:27:44.559Z,34.20
2018-04-01T21:30:12.213Z,32.07
2018-04-01T21:32:39.970Z,32.37
2018-04-01T21:35:08.101Z,35.43
2018-04-01T21:37:35.891Z,29.87
2018-04-01T21:40:03.479Z,31.30
2018-04-01T21:42:31.070Z,31.30
2018-04-01T21:44:58.673Z,38.07
2018-04-01T21:47:26.271Z,39.30
2018-04-01T21:49:54.038Z,36.10
2018-04-01T21:52:21.627Z,37.27
2018-04-01T21:54:49.211Z,30.67
2018-04-01T21:57:16.812Z,30.40
2018-04-01T21:59:45.107Z,35.50
2018-04-01T22:02:12.732Z,38.27
2018-04-01T22:04:40.327Z,40.20
2018-04-01T22:07:07.918Z,32.97
2018-04-01T22:09:35.528Z,32.90
2018-04-01T22:12:03.149Z,37.40
2018-04-01T22:14:30.768Z,32.07
2018-04-01T22:16:58.348Z,28.60
2018-04-01T22:19:25.928Z,30.70
2018-04-01T22:21:53.515Z,29.87
2018-04-01T22:24:21.100Z,26.80
2018-04-01T22:26:48.702Z,28.93
2018-04-01T22:29:16.371Z,33.83
2018-04-01T22:31:43.963Z,29.43
2018-04-01T22:34:11.547Z,29.67
2018-04-01T22:36:39.126Z,32.00
2018-04-01T22:39:06.711Z,30.20
2018-04-01T22:41:34.298Z,25.50
2018-04-01T22:44:01.991Z,29.70
2018-04-01T22:46:29.638Z,25.47
2018-04-01T22:48:57.299Z,22.60
2018-04-01T22:51:24.885Z,25.93
2018-04-01T22:53:52.465Z,24.50
2018-04-01T22:56:20.056Z,27.43
2018-04-01T22:58:47.648Z,30.87
2018-04-01T23:01:15.353Z,34.13
2018-04-01T23:03:42.944Z,28.23
2018-04-01T23:06:10.567Z,30.47
2018-04-01T23:08:38.176Z,22.20
2018-04-01T23:11:05.752Z,26.10
2018-04-01T23:13:33.387Z,26.37
2018-04-01T23:16:00.971Z,20.63
2018-04-01T23:18:28.551Z,21.47
2018-04-01T23:20:56.130Z,29.00
2018-04-01T23:23:23.747Z,25.17
2018-04-01T23:25:52.032Z,25.70
2018-04-01T23:28:19.624Z,20.63
2018-04-01T23:30:47.220Z,24.37
2018-04-01T23:33:14.855Z,23.45
2018-04-01T23:35:42.441Z,28.73
2018-04-01T23:38:10.023Z,24.83
2018-04-01T23:40:38.215Z,26.80
2018-04-01T23:43:05.805Z,25.03
2018-04-01T23:45:33.399Z,29.33
2018-04-01T23:48:01.003Z,23.10
2018-04-01T23:50:28.609Z,31.70
2018-04-01T23:52:56.248Z,28.50
2018-04-01T23:55:23.912Z,27.60
2018-04-01T23:57:51.760Z,36.30
